Time;durP1;ratioP1;P1;durP2;ratioP2;P2;SDS_P1;SDS_P2;PMS_P1;PMS_P2;Temp;Humidity;BMP_temperature;BMP_pressure;BME280_temperature;BME280_humidity;BME280_pressure;Samples;Min_cycle;Max_cycle;Signal;HPM_P1;HPM_P2
2024/02/27 00:00:32;;;;;;;18.55;10.13;;;;;;;10.44;49.38;93729.88;5031485;28;20087;-71
2024/02/27 00:02:58;;;;;;;13.32;9.63;;;;;;;10.47;49.47;93723.94;5031494;28;20139;-72
2024/02/27 00:05:25;;;;;;;14.18;9.90;;;;;;;10.42;49.07;93705.47;5031808;28;20248;-72
2024/02/27 00:07:50;;;;;;;12.68;9.07;;;;;;;10.52;49.04;93705.16;5031280;28;20033;-71
2024/02/27 00:10:16;;;;;;;13.95;9.48;;;;;;;10.60;49.12;93712.38;5030889;28;20492;-72
2024/02/27 00:12:41;;;;;;;20.52;12.60;;;;;;;10.69;48.67;93726.44;5031060;28;20049;-71
2024/02/27 00:15:07;;;;;;;15.15;9.55;;;;;;;10.44;48.86;93697.97;5031250;28;20033;-71
2024/02/27 00:17:33;;;;;;;15.23;10.65;;;;;;;10.56;49.45;93722.81;5031645;28;20036;-72
2024/02/27 00:19:58;;;;;;;15.27;10.15;;;;;;;10.52;49.58;93705.16;5031050;28;20033;-71
2024/02/27 00:22:24;;;;;;;16.40;10.35;;;;;;;10.72;49.45;93725.78;5031083;28;20198;-72
2024/02/27 00:24:49;;;;;;;16.38;11.07;;;;;;;10.76;49.31;93731.28;5030866;28;20040;-72
2024/02/27 00:27:14;;;;;;;14.70;10.40;;;;;;;10.75;49.26;93717.19;5031432;28;20025;-72
2024/02/27 00:29:40;;;;;;;15.63;9.80;;;;;;;10.85;49.14;93727.50;5031120;28;20508;-72
2024/02/27 00:32:06;;;;;;;14.50;9.90;;;;;;;10.86;49.15;93721.06;5030845;28;20030;-71
2024/02/27 00:34:32;;;;;;;15.23;9.50;;;;;;;10.74;49.11;93718.28;5030944;28;20051;-72
2024/02/27 00:36:57;;;;;;;18.20;11.05;;;;;;;10.82;49.21;93730.78;5030895;28;20113;-71
2024/02/27 00:39:23;;;;;;;16.63;9.63;;;;;;;10.87;49.12;93721.84;5030445;28;20041;-72
2024/02/27 00:41:49;;;;;;;20.52;10.15;;;;;;;10.95;49.12;93735.16;5031612;28;20028;-71
2024/02/27 00:44:15;;;;;;;17.13;10.40;;;;;;;10.98;49.16;93729.19;5031041;28;20037;-72
2024/02/27 00:46:44;;;;;;;15.95;10.80;;;;;;;11.01;49.11;93728.53;5030557;28;20043;-72
2024/02/27 00:49:10;;;;;;;13.85;9.02;;;;;;;11.02;48.72;93721.34;5029597;28;20107;-71
2024/02/27 00:51:35;;;;;;;14.98;9.18;;;;;;;10.97;49.04;93724.19;5029033;28;20496;-71
2024/02/27 00:54:01;;;;;;;17.45;11.35;;;;;;;10.03;51.07;93731.09;5029392;28;20109;-71
2024/02/27 00:56:26;;;;;;;16.25;10.27;;;;;;;10.16;50.82;93695.63;5030441;28;20064;-71
2024/02/27 00:58:52;;;;;;;15.93;9.75;;;;;;;10.48;50.83;93715.66;5029536;28;20041;-72
2024/02/27 01:01:17;;;;;;;13.77;8.95;;;;;;;10.58;50.10;93709.22;5030285;28;20527;-71
2024/02/27 01:03:43;;;;;;;17.50;10.80;;;;;;;10.69;50.56;93707.81;5030343;28;20033;-71
2024/02/27 01:06:08;;;;;;;18.70;13.20;;;;;;;10.69;50.34;93705.16;5030446;28;20029;-71
2024/02/27 01:08:33;;;;;;;20.33;12.95;;;;;;;10.72;50.48;93699.19;5030974;28;20065;-71
2024/02/27 01:10:59;;;;;;;20.88;13.25;;;;;;;10.78;50.21;93697.94;5030632;28;20033;-72
2024/02/27 01:13:24;;;;;;;20.98;13.73;;;;;;;10.94;50.28;93717.63;5030551;28;20493;-72
2024/02/27 01:15:50;;;;;;;20.73;12.23;;;;;;;10.87;50.43;93706.66;5030439;28;20092;-71
2024/02/27 01:18:15;;;;;;;20.80;13.13;;;;;;;10.89;50.32;93709.81;5030736;28;20112;-70
2024/02/27 01:20:40;;;;;;;17.30;11.68;;;;;;;10.92;50.38;93700.41;5031041;28;20644;-71
2024/02/27 01:23:06;;;;;;;20.45;12.25;;;;;;;10.92;50.30;93700.41;5033593;28;20049;-71
2024/02/27 01:25:31;;;;;;;20.30;12.80;;;;;;;11.04;50.17;93711.97;5034316;28;20034;-72
2024/02/27 01:27:57;;;;;;;18.00;12.60;;;;;;;11.09;49.96;93708.34;5034489;28;20112;-71
2024/02/27 01:30:22;;;;;;;16.42;11.52;;;;;;;11.08;49.99;93704.91;5034119;28;20033;-71
2024/02/27 01:32:47;;;;;;;18.85;11.70;;;;;;;11.10;50.06;93708.00;5034561;28;20052;-71
2024/02/27 01:35:17;;;;;;;16.90;11.43;;;;;;;10.98;50.25;93691.94;5034045;28;20497;-71
2024/02/27 01:37:43;;;;;;;16.52;11.20;;;;;;;11.02;50.01;93694.72;5034274;28;20056;-72
2024/02/27 01:40:10;;;;;;;16.75;11.38;;;;;;;11.08;49.91;93707.56;5034099;28;20496;-72
2024/02/27 01:42:36;;;;;;;13.50;9.98;;;;;;;11.03;50.20;93715.72;5034057;28;20029;-71
2024/02/27 01:45:02;;;;;;;17.85;10.35;;;;;;;10.89;50.44;93687.75;5034117;28;20036;-71
2024/02/27 01:47:28;;;;;;;15.73;9.98;;;;;;;10.97;50.56;93703.69;5034447;28;20029;-72
2024/02/27 01:49:53;;;;;;;14.35;9.98;;;;;;;10.97;50.35;93705.53;5033597;28;20075;-71
2024/02/27 01:52:19;;;;;;;15.85;10.27;;;;;;;10.97;50.54;93698.34;5034167;28;20553;-72
2024/02/27 01:54:47;;;;;;;13.05;10.20;;;;;;;10.76;50.49;93673.50;5033931;28;20044;-71
2024/02/27 01:57:14;;;;;;;14.55;11.30;;;;;;;10.92;50.01;93692.41;5033876;28;20037;-72
2024/02/27 01:59:41;;;;;;;17.42;10.82;;;;;;;10.87;49.94;93679.28;5033833;28;20029;-72
2024/02/27 02:02:07;;;;;;;22.67;12.05;;;;;;;10.97;49.81;93689.59;5033908;28;20044;-72
2024/02/27 02:04:34;;;;;;;21.08;12.40;;;;;;;11.01;49.84;93701.94;5033850;28;20064;-71
2024/02/27 02:07:01;;;;;;;18.70;12.23;;;;;;;11.03;49.72;93702.41;5033674;28;20374;-72
2024/02/27 02:09:27;;;;;;;16.88;11.25;;;;;;;11.07;49.59;93700.66;5033405;28;20049;-72
2024/02/27 02:11:52;;;;;;;18.08;12.27;;;;;;;11.04;49.86;93706.63;5033482;28;20108;-71
2024/02/27 02:14:19;;;;;;;19.05;10.68;;;;;;;10.90;49.64;93689.31;5033941;28;20029;-72
2024/02/27 02:16:44;;;;;;;15.32;10.98;;;;;;;10.99;49.98;93701.50;5033667;28;20040;-72
2024/02/27 02:19:10;;;;;;;12.27;9.65;;;;;;;10.89;49.69;93683.19;5033176;28;20041;-72
2024/02/27 02:21:35;;;;;;;13.68;9.30;;;;;;;10.91;49.83;93696.16;5033486;28;20029;-72
2024/02/27 02:24:02;;;;;;;19.92;9.38;;;;;;;10.94;50.06;93701.66;5033771;28;20021;-71
2024/02/27 02:26:31;;;;;;;11.98;8.70;;;;;;;10.87;50.32;93700.56;5033510;28;20083;-72
2024/02/27 02:28:57;;;;;;;19.35;10.10;;;;;;;10.82;50.20;93704.19;5032985;28;20060;-72
2024/02/27 02:31:23;;;;;;;17.10;10.43;;;;;;;10.90;49.74;93705.28;5033045;28;20037;-71
2024/02/27 02:33:49;;;;;;;16.80;10.63;;;;;;;10.75;50.45;93690.59;5032711;28;20041;-72
2024/02/27 02:36:15;;;;;;;17.92;10.68;;;;;;;10.63;50.59;93669.19;5033302;28;20036;-71
2024/02/27 02:38:41;;;;;;;19.98;11.10;;;;;;;10.84;50.37;93696.69;5033155;28;20140;-71
2024/02/27 02:41:06;;;;;;;18.60;10.40;;;;;;;10.82;50.25;93693.53;5033381;28;20041;-71
2024/02/27 02:43:31;;;;;;;17.33;10.20;;;;;;;10.80;50.49;93698.41;5033005;28;20523;-71
2024/02/27 02:45:57;;;;;;;14.98;9.75;;;;;;;10.73;50.47;93706.88;5032487;28;20072;-71
2024/02/27 02:48:22;;;;;;;18.02;10.43;;;;;;;10.73;50.88;93708.75;5032925;28;20515;-71
2024/02/27 02:50:47;;;;;;;15.20;11.00;;;;;;;10.62;50.38;93702.97;5032991;28;20022;-71
2024/02/27 02:53:13;;;;;;;18.45;11.27;;;;;;;10.69;50.31;93713.13;5032632;28;20064;-71
2024/02/27 02:55:42;;;;;;;17.27;11.90;;;;;;;10.70;50.42;93717.38;5032824;28;20033;-71
2024/02/27 02:58:10;;;;;;;18.00;12.40;;;;;;;10.68;50.61;93728.31;5032567;28;20056;-71
2024/02/27 03:00:35;;;;;;;20.63;14.02;;;;;;;10.72;50.79;93745.19;5032802;28;20092;-71
2024/02/27 03:03:00;;;;;;;24.92;15.48;;;;;;;10.77;50.40;93738.13;5032476;28;20548;-72
2024/02/27 03:05:27;;;;;;;25.75;15.70;;;;;;;10.77;50.50;93738.94;5033060;28;20028;-72
2024/02/27 03:07:53;;;;;;;25.67;15.88;;;;;;;10.56;50.60;93717.50;5032718;28;20045;-72
2024/02/27 03:10:18;;;;;;;21.77;16.23;;;;;;;10.62;51.03;93742.06;5032333;28;20041;-71
2024/02/27 03:12:44;;;;;;;23.23;16.13;;;;;;;10.53;51.29;93733.31;5032564;28;20038;-71
2024/02/27 03:15:10;;;;;;;25.35;15.50;;;;;;;10.46;51.36;93725.84;5032447;28;20044;-71
2024/02/27 03:17:35;;;;;;;25.38;16.75;;;;;;;10.40;51.30;93710.34;5032756;28;20461;-72
2024/02/27 03:20:05;;;;;;;22.60;17.15;;;;;;;10.44;51.24;93717.38;5032295;28;20037;-71
2024/02/27 03:22:31;;;;;;;24.77;16.48;;;;;;;10.47;51.44;93724.72;5032031;28;20072;-71
2024/02/27 03:24:56;;;;;;;26.13;16.58;;;;;;;10.58;50.94;93735.81;5032066;28;20034;-71
2024/02/27 03:27:21;;;;;;;25.17;16.40;;;;;;;10.63;51.11;93740.97;5032150;28;20040;-71
2024/02/27 03:29:47;;;;;;;30.73;18.08;;;;;;;10.61;50.89;93735.22;5032782;28;20048;-71
2024/02/27 03:32:12;;;;;;;25.27;15.68;;;;;;;10.60;50.60;93739.75;5031764;28;20075;-72
2024/02/27 03:34:37;;;;;;;37.50;16.45;;;;;;;10.54;51.42;93745.53;5031738;28;20083;-71
2024/02/27 03:37:03;;;;;;;25.50;16.75;;;;;;;10.48;51.42;93736.91;5031852;28;20043;-72
2024/02/27 03:39:29;;;;;;;25.35;16.05;;;;;;;10.55;51.27;93741.78;5031365;28;20559;-70
2024/02/27 03:41:54;;;;;;;25.42;15.75;;;;;;;10.51;51.68;93743.50;5032012;28;20448;-71
2024/02/27 03:44:19;;;;;;;21.13;15.88;;;;;;;10.45;51.88;93742.88;5031345;28;20022;-72
2024/02/27 03:46:45;;;;;;;22.13;15.50;;;;;;;10.45;52.11;93742.88;5031755;28;20030;-72
2024/02/27 03:49:10;;;;;;;28.70;17.33;;;;;;;10.52;51.63;93745.03;5031649;28;20033;-71
2024/02/27 03:51:36;;;;;;;23.05;15.52;;;;;;;10.42;51.44;93721.44;5031641;28;20120;-72
2024/02/27 03:54:01;;;;;;;26.67;16.92;;;;;;;10.44;51.49;93728.00;5031509;28;20033;-71
2024/02/27 03:56:26;;;;;;;21.67;14.55;;;;;;;10.51;51.32;93740.84;5031849;28;20014;-71
2024/02/27 03:58:52;;;;;;;25.98;15.45;;;;;;;10.46;51.75;93748.97;5031499;28;20120;-71
2024/02/27 04:01:18;;;;;;;20.77;15.57;;;;;;;10.36;51.76;93720.03;5031557;28;20493;-72
2024/02/27 04:03:44;;;;;;;21.52;14.32;;;;;;;10.43;52.22;93745.06;5030642;28;20492;-71
2024/02/27 04:06:11;;;;;;;20.60;14.55;;;;;;;10.43;52.01;93741.63;5031287;28;20033;-71
2024/02/27 04:08:36;;;;;;;19.35;13.75;;;;;;;10.45;52.01;93750.06;5031622;28;20021;-72
2024/02/27 04:11:02;;;;;;;22.40;13.88;;;;;;;10.50;52.08;93752.56;5031582;28;20038;-72
2024/02/27 04:13:27;;;;;;;20.77;13.50;;;;;;;10.50;51.86;93749.91;5031196;28;20029;-71
2024/02/27 04:15:53;;;;;;;24.45;13.93;;;;;;;10.47;52.07;93745.19;5031507;28;20042;-71
2024/02/27 04:18:18;;;;;;;24.52;14.70;;;;;;;10.50;52.19;93752.56;5031527;28;20026;-70
2024/02/27 04:20:43;;;;;;;20.67;16.25;;;;;;;10.54;51.49;93756.16;5031635;28;20021;-71
2024/02/27 04:23:09;;;;;;;24.20;16.48;;;;;;;10.44;51.78;93757.25;5030973;28;20045;-72
2024/02/27 04:25:35;;;;;;;23.23;14.15;;;;;;;10.45;51.78;93752.72;5031135;28;20425;-71
2024/02/27 04:28:01;;;;;;;25.88;14.90;;;;;;;10.27;52.13;93742.03;5031129;28;20117;-71
2024/02/27 04:30:26;;;;;;;23.38;13.90;;;;;;;10.39;51.81;93762.72;5030870;28;20116;-71
2024/02/27 04:32:51;;;;;;;16.67;13.73;;;;;;;10.40;51.95;93764.31;5031021;28;20025;-70
2024/02/27 04:35:17;;;;;;;22.50;15.35;;;;;;;10.26;52.02;93764.44;5031358;28;20025;-71
2024/02/27 04:37:42;;;;;;;21.10;14.23;;;;;;;10.24;51.87;93761.28;5030800;28;20050;-71
2024/02/27 04:40:09;;;;;;;24.83;16.20;;;;;;;10.21;51.86;93766.44;5030819;28;20537;-71
2024/02/27 04:42:34;;;;;;;26.33;17.10;;;;;;;10.16;52.22;93761.28;5030738;28;20112;-71
2024/02/27 04:45:00;;;;;;;21.35;14.18;;;;;;;10.26;51.77;93782.25;5030813;28;20109;-71
2024/02/27 04:47:26;;;;;;;23.33;15.30;;;;;;;10.23;52.43;93796.13;5031707;28;20028;-72
2024/02/27 04:49:51;;;;;;;28.20;16.58;;;;;;;10.28;52.23;93798.66;5031031;28;20030;-72
2024/02/27 04:52:16;;;;;;;24.90;16.27;;;;;;;10.21;52.60;93796.47;5030823;28;20034;-71
2024/02/27 04:54:42;;;;;;;35.20;20.30;;;;;;;10.22;52.41;93802.56;5031278;28;20040;-71
2024/02/27 04:57:08;;;;;;;24.38;17.55;;;;;;;10.17;52.62;93803.47;5034493;28;20025;-71
2024/02/27 04:59:35;;;;;;;24.73;17.90;;;;;;;10.25;52.27;93807.25;5034958;28;20029;-72
2024/02/27 05:02:00;;;;;;;28.02;18.77;;;;;;;10.23;52.33;93810.22;5033950;28;20063;-71
2024/02/27 05:04:26;;;;;;;25.45;18.08;;;;;;;10.29;52.41;93811.63;5034932;28;20054;-71
2024/02/27 05:06:51;;;;;;;24.77;17.17;;;;;;;10.20;52.16;93805.53;5034926;28;20036;-72
2024/02/27 05:09:16;;;;;;;27.23;18.27;;;;;;;10.02;52.54;93797.84;5034801;28;20057;-71
2024/02/27 05:11:44;;;;;;;25.58;17.42;;;;;;;10.06;52.99;93810.19;5034611;28;20468;-71
2024/02/27 05:14:10;;;;;;;33.67;19.08;;;;;;;10.08;52.86;93815.19;5034572;28;20060;-71
2024/02/27 05:16:37;;;;;;;25.00;16.65;;;;;;;10.16;53.04;93814.44;5034717;28;20463;-71
2024/02/27 05:19:02;;;;;;;30.15;19.08;;;;;;;10.04;52.78;93804.41;5034584;28;20432;-72
2024/02/27 05:21:28;;;;;;;28.33;16.63;;;;;;;10.10;53.35;93826.28;5034746;28;20083;-72
2024/02/27 05:23:53;;;;;;;27.60;18.38;;;;;;;10.16;53.02;93823.19;5034617;28;20084;-71
2024/02/27 05:26:19;;;;;;;28.27;19.40;;;;;;;10.15;52.80;93810.22;5034855;28;20075;-72
2024/02/27 05:28:44;;;;;;;30.17;19.40;;;;;;;10.23;52.99;93826.16;5034448;28;20513;-72
2024/02/27 05:31:26;;;;;;;26.60;18.40;;;;;;;10.23;52.85;93826.16;5034290;28;20037;-72
2024/02/27 05:33:52;;;;;;;28.35;19.15;;;;;;;10.18;53.18;93818.34;5034342;28;20040;-70
2024/02/27 05:36:19;;;;;;;30.23;18.48;;;;;;;10.30;53.25;93831.81;5033814;28;20041;-71
2024/02/27 05:38:44;;;;;;;28.80;20.42;;;;;;;10.25;52.79;93813.34;5033053;28;20073;-71
2024/02/27 05:41:10;;;;;;;32.25;20.77;;;;;;;10.40;53.05;93836.09;5032482;28;20061;-72
2024/02/27 05:43:36;;;;;;;33.33;20.27;;;;;;;10.35;52.99;93838.84;5033041;28;20511;-71
2024/02/27 05:46:05;;;;;;;29.88;19.02;;;;;;;10.26;52.60;93825.56;5033832;28;20064;-72
2024/02/27 05:48:31;;;;;;;31.10;19.67;;;;;;;10.20;53.09;93812.72;5033492;28;20045;-71
2024/02/27 05:50:56;;;;;;;30.88;20.35;;;;;;;10.39;53.55;93849.69;5034047;28;20022;-70
2024/02/27 05:53:21;;;;;;;32.75;21.52;;;;;;;10.43;53.38;93855.94;5034487;28;20029;-72
2024/02/27 05:55:47;;;;;;;28.33;20.55;;;;;;;10.53;53.25;93858.31;5033961;28;20037;-72
2024/02/27 05:58:12;;;;;;;31.17;20.83;;;;;;;10.45;53.64;93853.75;5032602;28;20061;-72
2024/02/27 06:00:37;;;;;;;25.63;19.83;;;;;;;10.48;53.67;93863.78;5034035;28;20052;-71
2024/02/27 06:03:03;;;;;;;28.40;19.70;;;;;;;10.40;53.50;93841.41;5034106;28;20476;-71
2024/02/27 06:05:28;;;;;;;26.17;18.33;;;;;;;10.51;52.76;93847.22;5034173;28;20494;-72
2024/02/27 06:07:54;;;;;;;27.83;18.83;;;;;;;10.65;52.99;93858.47;5033011;28;20049;-71
2024/02/27 06:10:19;;;;;;;33.92;20.60;;;;;;;10.68;52.73;93865.81;5025770;28;20040;-71
2024/02/27 06:12:45;;;;;;;28.27;17.80;;;;;;;10.66;52.92;93860.06;5037993;28;20029;-71
2024/02/27 06:15:10;;;;;;;30.40;18.92;;;;;;;10.66;52.34;93852.06;5033559;28;20508;-71
2024/02/27 06:17:35;;;;;;;32.45;19.58;;;;;;;10.77;52.44;93858.63;5033565;28;20112;-72
2024/02/27 06:20:09;;;;;;;27.20;18.13;;;;;;;10.76;52.45;93865.03;5033597;28;20063;-72
2024/02/27 06:22:34;;;;;;;31.83;19.15;;;;;;;10.77;52.66;93876.47;5033638;28;20033;-72
2024/02/27 06:25:00;;;;;;;32.00;17.50;;;;;;;10.82;52.58;93886.97;5033451;28;20044;-72
2024/02/27 06:27:25;;;;;;;28.00;16.52;;;;;;;10.82;52.47;93884.28;5032112;28;20025;-71
2024/02/27 06:29:50;;;;;;;30.20;18.25;;;;;;;10.84;52.59;93888.22;5033812;28;20014;-71
2024/02/27 06:32:16;;;;;;;26.90;18.08;;;;;;;10.93;52.78;93890.88;5033360;28;20045;-72
2024/02/27 06:34:41;;;;;;;26.27;18.15;;;;;;;10.96;52.18;93892.91;5033217;28;20053;-71
2024/02/27 06:37:07;;;;;;;27.85;18.38;;;;;;;10.94;51.92;93879.94;5033168;28;20124;-71
2024/02/27 06:39:33;;;;;;;37.65;19.95;;;;;;;11.00;51.86;93896.53;5032754;28;20401;-71
2024/02/27 06:41:58;;;;;;;33.60;19.88;;;;;;;11.05;51.19;93904.38;5032987;28;20104;-72
2024/02/27 06:44:24;;;;;;;30.00;19.45;;;;;;;11.15;51.14;93904.81;5033147;28;20538;-71
2024/02/27 06:46:49;;;;;;;37.38;21.85;;;;;;;10.88;51.51;93910.44;5032841;28;20057;-71
2024/02/27 06:49:15;;;;;;;34.38;21.13;;;;;;;10.46;51.86;93898.66;5032850;28;20029;-71
2024/02/27 06:51:41;;;;;;;43.25;21.70;;;;;;;10.28;53.40;93919.06;5031091;28;20029;-71
2024/02/27 06:54:06;;;;;;;39.67;21.63;;;;;;;10.54;52.68;93921.03;5031937;28;20524;-72
2024/02/27 06:56:32;;;;;;;40.17;23.23;;;;;;;10.38;52.77;93928.66;5031816;28;20396;-71
2024/02/27 06:58:57;;;;;;;36.92;23.73;;;;;;;10.55;52.60;93925.25;5031583;28;20041;-72
2024/02/27 07:01:23;;;;;;;36.92;23.48;;;;;;;10.64;52.48;93910.09;5031548;28;20073;-72
2024/02/27 07:03:50;;;;;;;43.30;23.80;;;;;;;10.93;52.00;93918.28;5031540;28;20182;-71
2024/02/27 07:06:15;;;;;;;36.78;23.63;;;;;;;10.89;52.41;93922.66;5031052;28;20556;-72
2024/02/27 07:08:40;;;;;;;38.90;23.38;;;;;;;10.67;52.53;93928.09;5032071;28;20155;-72
2024/02/27 07:11:08;;;;;;;41.55;25.17;;;;;;;10.62;52.99;93928.25;5031073;28;20619;-71
2024/02/27 07:13:33;;;;;;;42.42;24.35;;;;;;;10.70;53.28;93930.16;5032301;28;20052;-72
2024/02/27 07:15:59;;;;;;;38.78;24.30;;;;;;;10.42;53.38;93920.84;5032030;28;20552;-72
2024/02/27 07:18:24;;;;;;;34.92;24.15;;;;;;;10.83;52.50;93931.88;5031025;28;20048;-71
2024/02/27 07:20:50;;;;;;;44.72;24.00;;;;;;;10.80;52.36;93910.44;5031494;28;20436;-71
2024/02/27 07:23:15;;;;;;;42.05;23.77;;;;;;;11.15;51.80;93942.06;5032175;28;20061;-72
2024/02/27 07:25:41;;;;;;;39.13;25.05;;;;;;;10.81;52.61;93942.03;5031251;28;20037;-72
2024/02/27 07:28:06;;;;;;;39.30;24.15;;;;;;;10.90;52.05;93924.25;5032009;28;20649;-72
2024/02/27 07:30:31;;;;;;;37.47;23.38;;;;;;;11.30;51.53;93943.50;5031491;28;20095;-71
2024/02/27 07:32:57;;;;;;;37.38;25.40;;;;;;;11.02;52.32;93942.22;5031837;28;20119;-71
2024/02/27 07:35:22;;;;;;;40.65;26.90;;;;;;;10.62;53.46;93938.88;5030691;28;20036;-72
2024/02/27 07:37:48;;;;;;;40.08;23.95;;;;;;;10.85;52.89;93943.00;5031639;28;20036;-72
2024/02/27 07:40:14;;;;;;;39.67;23.25;;;;;;;11.24;52.49;93938.66;5031451;28;20065;-72
2024/02/27 07:42:39;;;;;;;42.45;25.73;;;;;;;11.46;51.47;93946.47;5031964;28;20068;-72
2024/02/27 07:45:05;;;;;;;39.40;25.95;;;;;;;11.31;51.17;93939.72;5031562;28;20492;-72
2024/02/27 07:47:31;;;;;;;38.22;24.20;;;;;;;11.41;51.41;93944.75;5031982;28;20554;-72
2024/02/27 07:49:57;;;;;;;38.97;23.77;;;;;;;11.14;51.93;93939.75;5031439;28;20045;-71
2024/02/27 07:52:23;;;;;;;32.63;22.70;;;;;;;10.99;52.70;93938.31;5031373;28;20037;-71
2024/02/27 07:54:48;;;;;;;35.10;23.73;;;;;;;11.04;52.46;93935.50;5031612;28;20572;-72
2024/02/27 07:57:13;;;;;;;40.70;24.00;;;;;;;10.84;52.32;93935.34;5031473;28;20038;-71
2024/02/27 07:59:39;;;;;;;34.67;22.77;;;;;;;10.77;52.63;93927.81;5031795;28;20159;-71
2024/02/27 08:02:04;;;;;;;41.22;23.17;;;;;;;10.67;53.08;93926.22;5031208;28;20029;-71
2024/02/27 08:04:29;;;;;;;39.22;23.02;;;;;;;10.70;52.87;93911.53;5031242;28;20029;-71
2024/02/27 08:06:55;;;;;;;30.42;21.45;;;;;;;11.13;51.92;93928.31;5031378;28;20493;-71
2024/02/27 08:09:20;;;;;;;32.47;21.73;;;;;;;11.26;51.17;93915.13;5030915;28;20038;-71
2024/02/27 08:11:45;;;;;;;40.88;22.95;;;;;;;11.32;50.37;93913.91;5031446;28;20113;-72
2024/02/27 08:14:11;;;;;;;44.58;22.85;;;;;;;10.62;52.55;93937.00;5031006;28;20562;-71
2024/02/27 08:16:36;;;;;;;29.02;19.92;;;;;;;10.63;53.06;93925.28;5030885;28;20044;-71
2024/02/27 08:19:05;;;;;;;36.22;23.15;;;;;;;10.31;53.02;93915.78;5031197;28;20570;-72
2024/02/27 08:21:31;;;;;;;33.58;20.75;;;;;;;10.76;52.45;93918.25;5030623;28;20029;-72
2024/02/27 08:23:56;;;;;;;37.63;20.52;;;;;;;10.90;51.32;93929.56;5031131;28;20037;-70
2024/02/27 08:26:22;;;;;;;40.17;20.67;;;;;;;10.72;52.23;93933.25;5031282;28;20477;-71
2024/02/27 08:28:47;;;;;;;33.70;20.40;;;;;;;10.51;52.33;93940.28;5031071;28;20041;-71
2024/02/27 08:31:14;;;;;;;34.22;18.70;;;;;;;10.74;51.43;93920.44;5030629;28;20461;-72
2024/02/27 08:33:40;;;;;;;29.70;17.33;;;;;;;11.36;50.45;93925.47;5030605;28;20044;-71
2024/02/27 08:36:05;;;;;;;33.97;19.30;;;;;;;10.81;50.69;93936.72;5030824;28;20048;-71
2024/02/27 08:38:31;;;;;;;33.33;19.48;;;;;;;10.59;52.06;93934.97;5030985;28;20073;-71
2024/02/27 08:40:57;;;;;;;28.90;18.35;;;;;;;10.78;51.11;93932.03;5030373;28;20041;-72
2024/02/27 08:43:23;;;;;;;29.05;18.85;;;;;;;10.93;51.13;93941.44;5030703;28;20539;-72
2024/02/27 08:45:48;;;;;;;38.42;18.80;;;;;;;11.23;50.02;93929.09;5030761;28;20124;-71
2024/02/27 08:48:13;;;;;;;35.35;20.00;;;;;;;11.45;50.27;93944.88;5029638;28;20037;-71
2024/02/27 08:50:39;;;;;;;32.60;17.88;;;;;;;11.66;49.54;93945.84;5031054;28;20388;-71
2024/02/27 08:53:04;;;;;;;29.83;18.98;;;;;;;11.00;50.54;93939.88;5030274;28;20083;-72
2024/02/27 08:55:31;;;;;;;34.42;19.23;;;;;;;11.17;50.06;93945.22;5030304;28;20030;-71
2024/02/27 08:57:57;;;;;;;31.40;17.70;;;;;;;11.46;49.90;93946.47;5030627;28;20064;-71
2024/02/27 09:00:23;;;;;;;27.75;17.48;;;;;;;11.56;48.71;93943.50;5030619;28;20072;-71
2024/02/27 09:02:48;;;;;;;31.77;19.15;;;;;;;11.72;47.87;93941.91;5030998;28;20026;-71
2024/02/27 09:05:14;;;;;;;25.85;16.45;;;;;;;12.06;48.67;93942.94;5030106;28;20037;-72
2024/02/27 09:07:41;;;;;;;27.70;17.45;;;;;;;12.16;47.56;93923.91;5030082;28;20029;-71
2024/02/27 09:10:08;;;;;;;30.08;18.73;;;;;;;12.44;47.37;93933.03;5030030;28;20029;-71
2024/02/27 09:12:33;;;;;;;31.95;17.30;;;;;;;12.70;46.47;93935.63;5029421;28;20042;-72
2024/02/27 09:14:59;;;;;;;27.83;17.83;;;;;;;12.71;46.32;93937.19;5030176;28;20025;-71
2024/02/27 09:17:24;;;;;;;28.45;16.48;;;;;;;12.64;46.02;93931.56;5031022;28;20029;-72
2024/02/27 09:19:50;;;;;;;45.08;18.27;;;;;;;12.58;46.18;93944.31;5030394;28;20489;-72
2024/02/27 09:22:15;;;;;;;19.05;12.90;;;;;;;11.98;45.67;93926.63;5030646;28;20030;-71
2024/02/27 09:24:41;;;;;;;21.40;12.88;;;;;;;11.97;45.59;93935.75;5030344;28;20490;-71
2024/02/27 09:27:06;;;;;;;23.23;12.30;;;;;;;12.04;45.28;93928.03;5030055;28;20026;-72
2024/02/27 09:29:31;;;;;;;16.23;10.80;;;;;;;12.19;44.85;93920.59;5030988;28;20452;-72
2024/02/27 09:31:57;;;;;;;22.90;11.45;;;;;;;12.51;44.51;93930.66;5030347;28;20088;-72
2024/02/27 09:34:22;;;;;;;23.80;15.02;;;;;;;12.48;44.99;93928.63;5030520;28;20525;-72
2024/02/27 09:36:47;;;;;;;30.58;16.80;;;;;;;12.64;44.83;93921.69;5030498;28;20038;-71
2024/02/27 09:39:13;;;;;;;25.85;15.98;;;;;;;12.93;44.04;93923.53;5029811;28;20052;-72
2024/02/27 09:41:58;;;;;;;29.17;17.00;;;;;;;12.96;44.50;93904.19;5030909;28;20539;-72
2024/02/27 09:44:24;;;;;;;;;;;;;;;13.15;45.15;93922.44;5034520;28;20037;-72
2024/02/27 09:46:51;;;;;;;29.23;17.40;;;;;;;12.99;44.27;93916.13;5034011;28;19913;-72
2024/02/27 09:49:18;;;;;;;30.70;18.38;;;;;;;12.68;45.34;93927.94;5033951;28;20120;-72
2024/02/27 09:51:48;;;;;;;29.02;18.00;;;;;;;13.29;45.53;93921.06;5033582;28;20037;-71
2024/02/27 09:54:15;;;;;;;33.50;18.00;;;;;;;13.59;43.49;93919.09;5033911;28;20030;-72
2024/02/27 09:56:41;;;;;;;26.08;16.15;;;;;;;13.06;44.03;93911.03;5034362;28;20104;-71
2024/02/27 09:59:06;;;;;;;31.20;16.42;;;;;;;12.66;45.03;93908.03;5033439;28;20579;-71
2024/02/27 10:01:36;;;;;;;29.85;16.42;;;;;;;12.65;44.90;93927.81;5033336;28;20037;-71
2024/02/27 10:04:02;;;;;;;31.33;15.80;;;;;;;12.73;44.36;93917.06;5033748;28;20033;-71
2024/02/27 10:06:32;;;;;;;26.13;16.70;;;;;;;12.88;44.07;93921.06;5033206;28;20042;-72
2024/02/27 10:09:01;;;;;;;25.95;15.60;;;;;;;12.86;44.02;93918.69;5033428;28;20485;-71
2024/02/27 10:11:28;;;;;;;24.77;14.82;;;;;;;13.00;44.45;93920.34;5032470;28;20392;-72
2024/02/27 10:13:54;;;;;;;23.60;15.75;;;;;;;13.50;44.26;93915.69;5033248;28;20033;-71
2024/02/27 10:16:21;;;;;;;29.40;14.60;;;;;;;13.51;42.65;93905.78;5033431;28;20033;-72
2024/02/27 10:18:46;;;;;;;22.38;14.45;;;;;;;13.21;42.48;93918.44;5033167;28;20519;-71
2024/02/27 10:21:12;;;;;;;22.48;14.40;;;;;;;12.60;44.12;93914.66;5033124;28;20029;-71
2024/02/27 10:23:37;;;;;;;26.60;14.20;;;;;;;12.73;44.45;93914.41;5033910;28;20017;-71
2024/02/27 10:26:10;;;;;;;25.25;14.82;;;;;;;13.10;43.56;93909.28;5032966;28;20432;-71
2024/02/27 10:28:36;;;;;;;27.00;14.95;;;;;;;13.03;42.82;93906.34;5032958;28;20033;-71
2024/02/27 10:31:08;;;;;;;19.25;13.52;;;;;;;12.70;43.44;93899.03;5032688;28;20034;-72
2024/02/27 10:33:34;;;;;;;27.67;13.23;;;;;;;12.69;43.86;93908.16;5033001;28;20061;-71
2024/02/27 10:36:00;;;;;;;24.75;13.70;;;;;;;13.25;43.07;93896.09;5033181;28;20107;-71
2024/02/27 10:38:27;;;;;;;22.33;10.80;;;;;;;13.06;42.56;93905.69;5032838;28;20037;-71
2024/02/27 10:40:53;;;;;;;15.55;10.10;;;;;;;13.01;42.04;93889.84;5032529;28;20033;-72
2024/02/27 10:43:19;;;;;;;18.70;11.15;;;;;;;12.65;42.61;93880.56;5032499;28;20037;-72
2024/02/27 10:45:50;;;;;;;21.38;12.23;;;;;;;12.72;42.98;93893.38;5032602;28;20037;-72
2024/02/27 10:48:17;;;;;;;22.88;10.98;;;;;;;12.48;43.13;93892.06;5032453;28;20030;-71
2024/02/27 10:50:43;;;;;;;26.05;12.55;;;;;;;12.40;43.34;93889.47;5033247;28;20124;-71
2024/02/27 10:53:10;;;;;;;21.88;10.73;;;;;;;12.78;42.90;93895.53;5032391;28;20036;-71
2024/02/27 10:55:37;;;;;;;36.85;11.25;;;;;;;12.95;42.64;93891.19;5032799;28;20125;-72
2024/02/27 10:58:03;;;;;;;19.08;11.57;;;;;;;12.98;41.93;93887.84;5032777;28;20060;-72
2024/02/27 11:00:29;;;;;;;24.77;11.43;;;;;;;12.99;41.67;93873.41;5032164;28;20501;-71
2024/02/27 11:02:57;;;;;;;15.52;10.30;;;;;;;13.27;41.20;93890.44;5032417;28;20029;-71
2024/02/27 11:05:25;;;;;;;15.27;9.30;;;;;;;13.28;40.87;93865.31;5032671;28;20199;-71
2024/02/27 11:07:52;;;;;;;15.13;9.85;;;;;;;13.31;41.72;93886.78;5032221;28;20026;-72
2024/02/27 11:10:18;;;;;;;17.65;9.57;;;;;;;12.88;41.70;93889.81;5032200;28;20030;-71
2024/02/27 11:12:48;;;;;;;14.57;10.32;;;;;;;12.93;41.81;93888.03;5031681;28;20083;-72